createdAt,value
2023-01-18T00:01:07.554Z,60.62
2023-01-18T00:02:09.194Z,61.17
2023-01-18T00:03:12.379Z,61.31
2023-01-18T00:04:13.824Z,61.61
2023-01-18T00:05:15.368Z,60.67
2023-01-18T00:06:18.263Z,61.07
2023-01-18T00:07:19.697Z,61.42
2023-01-18T00:08:21.232Z,61.18
2023-01-18T00:09:22.699Z,61.46
2023-01-18T00:10:24.210Z,61.06
2023-01-18T00:11:25.770Z,60.67
2023-01-18T00:12:27.187Z,61.42
2023-01-18T00:13:28.599Z,61.42
2023-01-18T00:14:30.067Z,62.28
2023-01-18T00:15:32.650Z,62.96
2023-01-18T00:16:34.474Z,62.55
2023-01-18T00:17:47.509Z,62.97
2023-01-18T00:18:57.242Z,63.01
2023-01-18T00:19:58.721Z,63.18
2023-01-18T00:21:01.758Z,62.53
2023-01-18T00:22:03.202Z,62.64
2023-01-18T00:23:04.614Z,62.73
2023-01-18T00:24:10.928Z,62.71
2023-01-18T00:25:12.556Z,62.20
2023-01-18T00:26:14.655Z,61.77
2023-01-18T00:27:16.262Z,61.40
2023-01-18T00:28:22.043Z,61.55
2023-01-18T00:29:23.469Z,61.94
2023-01-18T00:30:30.459Z,61.96
2023-01-18T00:31:32.344Z,62.14
2023-01-18T00:32:34.445Z,62.63
2023-01-18T00:33:35.889Z,62.62
2023-01-18T00:34:37.389Z,62.24
2023-01-18T00:35:38.838Z,62.00
2023-01-18T00:36:40.723Z,62.58
2023-01-18T00:37:42.577Z,62.76
2023-01-18T00:38:51.350Z,62.87
2023-01-18T00:39:53.228Z,62.66
2023-01-18T00:40:55.173Z,62.94
2023-01-18T00:42:15.244Z,62.43
2023-01-18T00:43:35.336Z,62.25
2023-01-18T00:44:36.775Z,62.55
2023-01-18T00:45:38.529Z,62.44
2023-01-18T00:46:40.035Z,63.29
2023-01-18T00:47:41.831Z,62.76
2023-01-18T00:48:44.325Z,63.13
2023-01-18T00:49:46.286Z,63.33
2023-01-18T00:50:47.708Z,62.73
2023-01-18T00:51:49.475Z,62.70
2023-01-18T00:52:50.969Z,62.75
2023-01-18T00:53:52.530Z,63.71
2023-01-18T00:54:54.026Z,63.71
2023-01-18T00:55:55.565Z,63.55
2023-01-18T00:56:57.376Z,63.81
2023-01-18T00:57:58.895Z,63.94
2023-01-18T00:59:00.327Z,63.57
2023-01-18T01:00:01.724Z,63.82
2023-01-18T01:01:04.539Z,63.38
2023-01-18T01:02:06.200Z,63.70
2023-01-18T01:03:08.439Z,63.91
2023-01-18T01:04:28.222Z,63.35
2023-01-18T01:05:48.223Z,63.84
2023-01-18T01:06:49.771Z,63.22
2023-01-18T01:07:51.323Z,62.87
2023-01-18T01:08:52.751Z,62.96
2023-01-18T01:09:54.293Z,62.56
2023-01-18T01:11:09.239Z,62.88
2023-01-18T01:12:29.498Z,63.24
2023-01-18T01:13:49.879Z,62.78
2023-01-18T01:15:09.694Z,63.02
2023-01-18T01:16:30.280Z,63.18
2023-01-18T01:17:52.707Z,63.50
2023-01-18T01:19:13.567Z,62.80
2023-01-18T01:20:33.812Z,63.23
2023-01-18T01:21:54.031Z,63.63
2023-01-18T01:23:13.928Z,62.76
2023-01-18T01:24:34.100Z,62.84
2023-01-18T01:25:57.544Z,62.70
2023-01-18T01:26:59.293Z,62.79
2023-01-18T01:28:00.732Z,62.96
2023-01-18T01:29:02.273Z,62.99
2023-01-18T01:30:04.092Z,62.96
2023-01-18T01:31:08.361Z,63.40
2023-01-18T01:32:10.142Z,63.19
2023-01-18T01:33:11.761Z,63.56
2023-01-18T01:34:13.537Z,64.08
2023-01-18T01:35:14.935Z,64.40
2023-01-18T01:36:19.663Z,64.19
2023-01-18T01:37:21.140Z,64.23
2023-01-18T01:38:22.835Z,63.88
2023-01-18T01:39:24.466Z,63.87
2023-01-18T01:40:25.902Z,64.08
2023-01-18T01:41:32.729Z,63.72
2023-01-18T01:42:34.178Z,63.60
2023-01-18T01:43:43.064Z,64.13
2023-01-18T01:44:52.027Z,63.84
2023-01-18T01:45:53.594Z,63.78
2023-01-18T01:47:33.014Z,64.42
2023-01-18T01:48:34.499Z,63.84
2023-01-18T01:49:40.178Z,64.27
2023-01-18T01:50:41.865Z,63.87
2023-01-18T01:51:46.824Z,63.98
2023-01-18T01:52:49.057Z,63.59
2023-01-18T01:53:51.548Z,63.85
2023-01-18T01:55:08.740Z,63.91
2023-01-18T01:56:11.389Z,63.80
2023-01-18T01:57:18.884Z,64.46
2023-01-18T01:58:26.997Z,64.50
2023-01-18T01:59:29.478Z,64.55
2023-01-18T02:00:31.736Z,64.71
2023-01-18T02:01:34.574Z,64.83
2023-01-18T02:02:38.930Z,64.33
2023-01-18T02:03:40.626Z,64.94
2023-01-18T02:04:44.227Z,65.13
2023-01-18T02:05:49.728Z,64.63
2023-01-18T02:06:51.173Z,65.04
2023-01-18T02:07:54.488Z,64.99
2023-01-18T02:08:56.208Z,64.95
2023-01-18T02:09:59.276Z,65.25
2023-01-18T02:11:00.622Z,65.11
2023-01-18T02:12:03.409Z,64.57
2023-01-18T02:13:08.485Z,64.79
2023-01-18T02:14:15.669Z,64.79
2023-01-18T02:15:19.950Z,65.20
2023-01-18T02:16:49.371Z,64.80
2023-01-18T02:18:07.000Z,64.62
2023-01-18T02:20:00.599Z,65.22
2023-01-18T02:21:15.396Z,64.61
2023-01-18T02:22:35.204Z,65.32
2023-01-18T02:24:01.682Z,65.08
2023-01-18T02:25:23.055Z,64.89
2023-01-18T02:26:52.196Z,64.69
2023-01-18T02:28:07.858Z,65.53
2023-01-18T02:29:15.124Z,65.19
2023-01-18T02:30:29.360Z,65.72
2023-01-18T02:31:38.605Z,65.72
2023-01-18T02:32:49.166Z,65.44
2023-01-18T02:34:19.214Z,64.97
2023-01-18T02:35:32.539Z,64.90
2023-01-18T02:37:05.691Z,65.30
2023-01-18T02:38:12.530Z,64.90
2023-01-18T02:39:43.979Z,64.81
2023-01-18T02:40:57.076Z,65.11
2023-01-18T02:42:26.910Z,65.43
2023-01-18T02:43:47.700Z,64.95
2023-01-18T02:45:07.934Z,64.77
2023-01-18T02:46:33.896Z,65.41
2023-01-18T02:47:37.137Z,65.70
2023-01-18T02:48:40.401Z,65.33
2023-01-18T02:49:41.886Z,65.27
2023-01-18T02:50:43.303Z,65.32
2023-01-18T02:51:44.719Z,64.84
2023-01-18T02:52:53.838Z,64.42
2023-01-18T02:53:55.500Z,64.68
2023-01-18T02:54:56.965Z,64.17
2023-01-18T02:56:07.910Z,64.46
2023-01-18T02:57:13.941Z,64.81
2023-01-18T02:58:39.302Z,65.03
2023-01-18T02:59:47.114Z,65.41
2023-01-18T03:00:55.111Z,65.69
2023-01-18T03:02:29.037Z,65.01
2023-01-18T03:03:31.065Z,65.15
2023-01-18T03:04:54.094Z,65.06
2023-01-18T03:06:00.077Z,64.06
2023-01-18T03:07:15.168Z,64.65
2023-01-18T03:08:39.654Z,65.22
2023-01-18T03:09:42.400Z,65.27
2023-01-18T03:11:03.524Z,64.70
2023-01-18T03:12:28.550Z,64.69
2023-01-18T03:13:53.711Z,64.60
2023-01-18T03:15:08.475Z,64.87
2023-01-18T03:16:14.766Z,64.65
2023-01-18T03:17:28.259Z,64.28
2023-01-18T03:18:34.742Z,64.63
2023-01-18T03:20:09.398Z,64.91
2023-01-18T03:21:10.947Z,64.40
2023-01-18T03:22:12.392Z,64.62
2023-01-18T03:23:38.214Z,65.32
2023-01-18T03:24:41.327Z,64.31
2023-01-18T03:25:51.744Z,63.86
2023-01-18T03:27:16.828Z,64.10
2023-01-18T03:28:42.739Z,64.18
2023-01-18T03:30:05.171Z,64.72
2023-01-18T03:31:30.339Z,64.20
2023-01-18T03:32:53.719Z,63.94
2023-01-18T03:34:02.300Z,64.33
2023-01-18T03:35:09.832Z,64.64
2023-01-18T03:36:20.040Z,65.37
2023-01-18T03:37:30.927Z,65.38
2023-01-18T03:38:34.839Z,66.20
2023-01-18T03:39:44.571Z,66.04
2023-01-18T03:40:46.559Z,65.38
2023-01-18T03:41:52.115Z,65.68
2023-01-18T03:42:58.500Z,65.22
2023-01-18T03:44:04.963Z,65.15
2023-01-18T03:45:20.525Z,65.74
2023-01-18T03:46:26.036Z,65.45
2023-01-18T03:47:27.555Z,65.93
2023-01-18T03:48:29.504Z,65.67
2023-01-18T03:49:33.565Z,65.60
2023-01-18T03:51:16.217Z,65.79
2023-01-18T03:52:23.881Z,65.97
2023-01-18T03:53:45.816Z,66.29
2023-01-18T03:54:58.448Z,65.97
2023-01-18T03:56:08.766Z,66.76
2023-01-18T03:57:19.132Z,66.51
2023-01-18T03:58:25.195Z,66.65
2023-01-18T03:59:33.083Z,66.31
2023-01-18T04:00:34.538Z,65.97
2023-01-18T04:01:36.753Z,66.13
2023-01-18T04:02:38.463Z,66.68
2023-01-18T04:03:39.904Z,66.77
2023-01-18T04:04:41.430Z,66.15
2023-01-18T04:05:42.942Z,66.11
2023-01-18T04:06:44.358Z,65.79
2023-01-18T04:07:45.816Z,65.93
2023-01-18T04:08:47.218Z,65.26
2023-01-18T04:09:48.964Z,65.28
2023-01-18T04:10:50.348Z,65.55
2023-01-18T04:11:52.133Z,65.36
2023-01-18T04:12:53.542Z,66.08
2023-01-18T04:13:55.019Z,66.39
2023-01-18T04:14:56.461Z,66.06
2023-01-18T04:15:57.892Z,66.25
2023-01-18T04:16:59.338Z,66.56
2023-01-18T04:18:00.726Z,67.17
2023-01-18T04:19:02.186Z,66.69
2023-01-18T04:20:04.494Z,66.79
2023-01-18T04:21:05.978Z,67.63
2023-01-18T04:22:09.796Z,67.10
2023-01-18T04:23:11.397Z,66.93
2023-01-18T04:24:12.960Z,66.78
2023-01-18T04:25:14.352Z,67.22
2023-01-18T04:26:16.699Z,66.82
2023-01-18T04:27:18.217Z,66.78
2023-01-18T04:28:25.364Z,66.61
2023-01-18T04:29:28.273Z,66.55
2023-01-18T04:30:29.663Z,66.29
2023-01-18T04:31:31.393Z,66.31
2023-01-18T04:32:32.890Z,65.92
2023-01-18T04:33:34.355Z,65.79
2023-01-18T04:34:36.147Z,65.99
2023-01-18T04:35:37.559Z,66.42
2023-01-18T04:36:39.011Z,65.67
2023-01-18T04:37:40.410Z,66.05
2023-01-18T04:38:41.816Z,65.51
2023-01-18T04:39:43.536Z,65.54
2023-01-18T04:40:44.933Z,65.49
2023-01-18T04:41:46.605Z,65.36
2023-01-18T04:42:54.707Z,65.54
2023-01-18T04:43:56.127Z,66.04
2023-01-18T04:44:58.730Z,65.24
2023-01-18T04:46:00.179Z,65.46
2023-01-18T04:47:01.624Z,65.53
2023-01-18T04:48:03.171Z,65.73
2023-01-18T04:49:06.590Z,66.05
2023-01-18T04:50:09.136Z,66.14
2023-01-18T04:51:14.128Z,66.30
2023-01-18T04:52:15.664Z,66.90
2023-01-18T04:53:18.068Z,66.63
2023-01-18T04:54:19.617Z,67.25
2023-01-18T04:55:21.028Z,66.95
2023-01-18T04:56:22.431Z,66.95
2023-01-18T04:57:24.379Z,67.27
2023-01-18T04:58:25.853Z,67.97
2023-01-18T04:59:28.385Z,66.94
2023-01-18T05:00:30.232Z,67.81
2023-01-18T05:01:32.528Z,67.53
2023-01-18T05:02:33.975Z,67.31
2023-01-18T05:03:38.755Z,67.77
2023-01-18T05:04:40.176Z,67.61
2023-01-18T05:05:41.828Z,67.87
2023-01-18T05:06:44.600Z,67.89
2023-01-18T05:07:46.076Z,67.76
2023-01-18T05:08:47.827Z,67.42
2023-01-18T05:09:49.567Z,67.38
2023-01-18T05:10:51.053Z,67.35
2023-01-18T05:11:52.525Z,67.43
2023-01-18T05:12:53.972Z,67.23
2023-01-18T05:13:55.413Z,67.14
2023-01-18T05:14:57.388Z,67.50
2023-01-18T05:16:00.938Z,67.05
2023-01-18T05:17:02.431Z,67.34
2023-01-18T05:18:04.053Z,67.19
2023-01-18T05:19:05.469Z,66.85
2023-01-18T05:20:09.066Z,66.87
2023-01-18T05:21:11.014Z,66.90
2023-01-18T05:22:12.998Z,66.50
2023-01-18T05:23:14.449Z,66.55
2023-01-18T05:24:15.945Z,66.46
2023-01-18T05:25:17.449Z,67.03
2023-01-18T05:26:21.515Z,67.09
2023-01-18T05:27:22.958Z,67.18
2023-01-18T05:28:26.040Z,66.99
2023-01-18T05:29:27.734Z,67.39
2023-01-18T05:30:29.178Z,66.99
2023-01-18T05:31:30.723Z,66.80
2023-01-18T05:32:32.154Z,67.09
2023-01-18T05:33:33.748Z,67.12
2023-01-18T05:34:35.147Z,66.46
2023-01-18T05:35:36.642Z,66.87
2023-01-18T05:36:38.123Z,66.55
2023-01-18T05:37:39.538Z,67.04
2023-01-18T05:38:41.078Z,66.49
2023-01-18T05:39:42.848Z,66.32
2023-01-18T05:40:45.534Z,66.78
2023-01-18T05:41:46.946Z,66.48
2023-01-18T05:42:48.413Z,66.91
2023-01-18T05:43:49.911Z,66.76
2023-01-18T05:44:51.721Z,67.15
2023-01-18T05:45:53.483Z,67.32
2023-01-18T05:46:54.973Z,67.08
2023-01-18T05:47:56.378Z,67.34
2023-01-18T05:48:59.267Z,67.52
2023-01-18T05:50:00.732Z,67.04
2023-01-18T05:51:08.621Z,67.17
2023-01-18T05:52:10.100Z,67.46
2023-01-18T05:53:11.893Z,67.43
2023-01-18T05:54:13.687Z,67.86
2023-01-18T05:55:15.637Z,67.42
2023-01-18T05:56:17.127Z,68.20
2023-01-18T05:57:18.563Z,67.91
2023-01-18T05:58:20.015Z,68.51
2023-01-18T05:59:21.745Z,68.42
2023-01-18T06:00:23.559Z,67.86
2023-01-18T06:01:25.152Z,67.82
2023-01-18T06:02:26.650Z,68.19
2023-01-18T06:03:28.211Z,67.90
2023-01-18T06:04:30.025Z,67.59
2023-01-18T06:05:31.492Z,67.92
2023-01-18T06:06:34.677Z,68.25
2023-01-18T06:07:36.215Z,67.71
2023-01-18T06:08:38.257Z,68.39
2023-01-18T06:09:40.398Z,67.96
2023-01-18T06:10:42.523Z,68.38
2023-01-18T06:11:43.942Z,68.62
2023-01-18T06:12:45.510Z,68.82
2023-01-18T06:13:47.231Z,68.51
2023-01-18T06:14:48.647Z,68.73
2023-01-18T06:15:51.827Z,68.47
2023-01-18T06:16:53.279Z,68.43
2023-01-18T06:17:54.731Z,69.09
2023-01-18T06:18:56.454Z,69.38
2023-01-18T06:19:58.164Z,68.60
2023-01-18T06:21:01.829Z,68.72
2023-01-18T06:22:03.612Z,68.70
2023-01-18T06:23:05.049Z,69.07
2023-01-18T06:24:07.137Z,69.06
2023-01-18T06:25:10.050Z,69.50
2023-01-18T06:26:11.516Z,69.01
2023-01-18T06:27:12.900Z,68.67
2023-01-18T06:28:14.430Z,69.16
2023-01-18T06:29:16.187Z,69.14
2023-01-18T06:30:18.486Z,69.99
2023-01-18T06:31:19.914Z,69.37
2023-01-18T06:32:22.492Z,70.22
2023-01-18T06:33:24.818Z,70.46
2023-01-18T06:34:27.065Z,70.13
2023-01-18T06:35:29.744Z,70.78
2023-01-18T06:36:32.958Z,70.50
2023-01-18T06:37:34.369Z,70.83
2023-01-18T06:38:36.221Z,70.50
2023-01-18T06:39:39.600Z,70.21
2023-01-18T06:40:41.476Z,69.92
2023-01-18T06:41:42.946Z,70.25
2023-01-18T06:42:48.356Z,70.09
2023-01-18T06:43:50.590Z,70.53
2023-01-18T06:44:52.051Z,70.11
2023-01-18T06:45:55.518Z,69.97
2023-01-18T06:46:57.019Z,70.20
2023-01-18T06:47:58.445Z,70.40
2023-01-18T06:49:00.239Z,70.41
2023-01-18T06:50:01.736Z,70.23
2023-01-18T06:51:03.272Z,70.33
2023-01-18T06:52:04.883Z,70.79
2023-01-18T06:53:06.290Z,70.73
2023-01-18T06:54:08.972Z,71.33
2023-01-18T06:55:12.122Z,70.73
2023-01-18T06:56:14.434Z,70.91
2023-01-18T06:57:15.858Z,71.33
2023-01-18T06:58:17.291Z,70.91
2023-01-18T06:59:18.689Z,71.51
2023-01-18T07:00:20.617Z,70.97
2023-01-18T07:01:22.155Z,71.19
2023-01-18T07:02:23.625Z,71.32
2023-01-18T07:03:27.199Z,71.53
2023-01-18T07:04:28.777Z,71.45
2023-01-18T07:05:31.057Z,71.35
2023-01-18T07:06:32.712Z,71.53
2023-01-18T07:07:34.181Z,71.14
2023-01-18T07:08:36.036Z,71.55
2023-01-18T07:09:37.899Z,71.05
2023-01-18T07:10:39.322Z,71.61
2023-01-18T07:11:43.734Z,71.39
2023-01-18T07:12:48.707Z,71.30
2023-01-18T07:13:50.334Z,71.50
2023-01-18T07:14:51.855Z,71.75
2023-01-18T07:15:56.446Z,72.20
2023-01-18T07:16:58.014Z,72.40
2023-01-18T07:17:59.830Z,72.74
2023-01-18T07:19:01.811Z,72.75
2023-01-18T07:20:03.480Z,72.64
2023-01-18T07:21:10.122Z,72.21
2023-01-18T07:22:13.292Z,73.07
2023-01-18T07:23:15.038Z,72.21
2023-01-18T07:24:16.683Z,72.56
2023-01-18T07:25:20.577Z,72.47
2023-01-18T07:26:22.091Z,74.83
2023-01-18T07:27:23.485Z,74.15
2023-01-18T07:28:25.236Z,73.82
2023-01-18T07:29:27.552Z,73.38
2023-01-18T07:30:28.988Z,73.82
2023-01-18T07:31:30.760Z,74.25
2023-01-18T07:32:32.435Z,73.62
2023-01-18T07:33:35.230Z,73.37
2023-01-18T07:34:36.652Z,73.54
2023-01-18T07:35:38.085Z,73.31
2023-01-18T07:36:41.768Z,72.95
2023-01-18T07:37:43.379Z,73.56
2023-01-18T07:38:44.922Z,72.99
2023-01-18T07:39:46.345Z,73.08
2023-01-18T07:40:48.815Z,72.70
2023-01-18T07:41:50.295Z,72.87
2023-01-18T07:42:58.993Z,73.09
2023-01-18T07:44:02.055Z,72.89
2023-01-18T07:45:03.639Z,72.76
2023-01-18T07:46:07.061Z,72.78
2023-01-18T07:47:08.645Z,73.34
2023-01-18T07:48:10.945Z,72.92
2023-01-18T07:49:12.372Z,73.09
2023-01-18T07:50:14.382Z,73.08
2023-01-18T07:51:16.083Z,73.15
2023-01-18T07:52:17.732Z,72.78
2023-01-18T07:53:20.124Z,72.71
2023-01-18T07:54:21.528Z,73.70
2023-01-18T07:55:22.981Z,73.24
2023-01-18T07:56:25.779Z,72.82
2023-01-18T07:57:27.373Z,72.70
2023-01-18T07:58:29.869Z,72.99
2023-01-18T07:59:32.428Z,73.51
2023-01-18T08:00:34.799Z,73.36
2023-01-18T08:01:36.477Z,73.05
2023-01-18T08:02:38.058Z,73.06
2023-01-18T08:03:39.647Z,72.89
2023-01-18T08:04:41.920Z,72.98
2023-01-18T08:05:44.966Z,73.42
2023-01-18T08:06:46.632Z,73.45
2023-01-18T08:07:48.400Z,73.47
2023-01-18T08:08:49.832Z,72.95
2023-01-18T08:09:51.791Z,73.16
2023-01-18T08:10:56.279Z,72.76
2023-01-18T08:11:57.724Z,73.25
2023-01-18T08:12:59.848Z,73.70
2023-01-18T08:14:01.611Z,73.73
2023-01-18T08:15:04.505Z,73.67
2023-01-18T08:16:08.613Z,73.14
2023-01-18T08:17:10.116Z,73.69
2023-01-18T08:18:13.272Z,73.36
2023-01-18T08:19:16.649Z,73.98
2023-01-18T08:20:18.219Z,73.55
2023-01-18T08:21:19.713Z,73.74
2023-01-18T08:22:21.212Z,73.61
2023-01-18T08:23:23.572Z,73.65
2023-01-18T08:24:25.173Z,73.84
2023-01-18T08:25:29.738Z,73.82
2023-01-18T08:26:31.219Z,73.58
2023-01-18T08:27:32.997Z,74.19
2023-01-18T08:28:34.868Z,73.76
2023-01-18T08:29:36.943Z,73.80
2023-01-18T08:30:40.969Z,73.85
2023-01-18T08:31:42.416Z,74.01
2023-01-18T08:32:44.246Z,73.97
2023-01-18T08:33:48.635Z,73.63
2023-01-18T08:34:50.589Z,73.44
2023-01-18T08:35:52.052Z,73.18
2023-01-18T08:36:53.457Z,73.85
2023-01-18T08:37:56.344Z,74.15
2023-01-18T08:38:58.352Z,73.83
2023-01-18T08:39:59.861Z,73.71
2023-01-18T08:41:04.849Z,74.15
2023-01-18T08:42:06.285Z,73.98
2023-01-18T08:43:08.851Z,74.35
2023-01-18T08:44:10.330Z,74.31
2023-01-18T08:45:19.586Z,73.68
2023-01-18T08:46:21.558Z,74.17
2023-01-18T08:47:23.360Z,74.43
2023-01-18T08:48:24.972Z,74.56
2023-01-18T08:49:26.402Z,74.41
2023-01-18T08:50:28.920Z,73.49
2023-01-18T08:51:30.379Z,73.27
2023-01-18T08:52:32.130Z,73.17
2023-01-18T08:53:33.617Z,73.37
2023-01-18T08:54:34.998Z,73.61
2023-01-18T08:55:38.189Z,73.21
2023-01-18T08:56:39.659Z,73.50
2023-01-18T08:57:41.070Z,74.27
2023-01-18T08:58:42.461Z,73.50
2023-01-18T08:59:43.884Z,74.11
2023-01-18T09:00:45.878Z,73.92
2023-01-18T09:01:47.581Z,73.72
2023-01-18T09:02:49.526Z,73.59
2023-01-18T09:03:54.260Z,73.86
2023-01-18T09:04:56.345Z,73.82
2023-01-18T09:06:00.999Z,73.74
2023-01-18T09:07:02.833Z,73.61
2023-01-18T09:08:04.356Z,73.58
2023-01-18T09:09:05.898Z,73.22
2023-01-18T09:10:09.018Z,73.03
2023-01-18T09:11:10.570Z,73.20
2023-01-18T09:12:13.362Z,75.41
2023-01-18T09:13:14.767Z,76.24
2023-01-18T09:14:16.477Z,75.72
2023-01-18T09:15:18.517Z,74.84
2023-01-18T09:16:19.965Z,74.81
2023-01-18T09:17:21.795Z,75.05
2023-01-18T09:18:23.311Z,75.71
2023-01-18T09:19:24.891Z,74.93
2023-01-18T09:20:26.972Z,75.18
2023-01-18T09:21:28.728Z,74.25
2023-01-18T09:22:30.519Z,75.05
2023-01-18T09:23:32.024Z,74.83
2023-01-18T09:24:33.536Z,74.56
2023-01-18T09:25:37.841Z,74.12
2023-01-18T09:26:39.289Z,74.43
2023-01-18T09:27:40.769Z,74.01
2023-01-18T09:28:43.811Z,74.09
2023-01-18T09:29:52.086Z,73.49
2023-01-18T09:30:53.994Z,72.90
2023-01-18T09:31:56.214Z,73.20
2023-01-18T09:32:58.333Z,73.24
2023-01-18T09:34:18.976Z,73.15
2023-01-18T09:35:20.992Z,73.55
2023-01-18T09:36:26.447Z,72.75
2023-01-18T09:37:28.304Z,73.46
2023-01-18T09:38:31.381Z,73.02
2023-01-18T09:39:43.032Z,73.01
2023-01-18T09:40:53.148Z,72.76
2023-01-18T09:41:59.242Z,73.10
2023-01-18T09:43:01.091Z,72.75
2023-01-18T09:44:10.785Z,73.48
2023-01-18T09:45:27.656Z,73.10
2023-01-18T09:46:32.470Z,72.42
2023-01-18T09:47:46.364Z,72.84
2023-01-18T09:48:57.695Z,72.72
2023-01-18T09:50:13.473Z,72.97
2023-01-18T09:51:21.950Z,72.84
2023-01-18T09:52:32.419Z,72.12
2023-01-18T09:54:08.109Z,72.83
2023-01-18T09:55:19.527Z,72.99
2023-01-18T09:56:25.681Z,72.96
2023-01-18T09:57:41.644Z,73.47
2023-01-18T09:58:59.708Z,73.44
2023-01-18T10:00:05.037Z,73.12
2023-01-18T10:01:15.898Z,72.48
2023-01-18T10:02:24.057Z,72.66
2023-01-18T10:03:35.393Z,72.42
2023-01-18T10:04:42.937Z,72.59
2023-01-18T10:06:08.380Z,72.96
2023-01-18T10:07:17.290Z,72.84
2023-01-18T10:08:25.449Z,72.82
2023-01-18T10:09:35.411Z,73.53
2023-01-18T10:10:39.385Z,73.06
2023-01-18T10:11:48.510Z,72.49
2023-01-18T10:13:16.605Z,73.33
2023-01-18T10:14:42.392Z,73.68
2023-01-18T10:15:44.854Z,73.07
2023-01-18T10:16:57.955Z,73.68
2023-01-18T10:18:00.924Z,73.69
2023-01-18T10:19:02.475Z,73.83
2023-01-18T10:20:14.515Z,74.03
2023-01-18T10:21:26.566Z,74.02
2023-01-18T10:22:44.168Z,74.56
2023-01-18T10:24:02.026Z,74.40
2023-01-18T10:25:36.279Z,74.40
2023-01-18T10:26:38.917Z,74.37
2023-01-18T10:27:58.750Z,74.22
2023-01-18T10:29:15.931Z,73.51
2023-01-18T10:30:25.591Z,73.73
2023-01-18T10:32:02.089Z,73.47
2023-01-18T10:33:14.668Z,73.83
2023-01-18T10:34:22.326Z,73.95
2023-01-18T10:35:26.895Z,74.01
2023-01-18T10:36:43.824Z,73.43
2023-01-18T10:37:46.972Z,73.54
2023-01-18T10:38:50.999Z,73.44
2023-01-18T10:39:57.583Z,73.36
2023-01-18T10:41:02.836Z,73.93
2023-01-18T10:42:08.588Z,73.46
2023-01-18T10:43:15.499Z,73.76
2023-01-18T10:44:16.959Z,74.05
2023-01-18T10:45:22.464Z,73.98
2023-01-18T10:46:24.122Z,73.55
2023-01-18T10:47:26.013Z,73.75
2023-01-18T10:48:31.156Z,73.41
2023-01-18T10:49:42.167Z,72.75
2023-01-18T10:50:52.317Z,72.63
2023-01-18T10:51:55.057Z,73.29
2023-01-18T10:52:56.701Z,73.11
2023-01-18T10:53:58.685Z,73.35
2023-01-18T10:55:07.514Z,74.04
2023-01-18T10:56:21.721Z,73.54
2023-01-18T10:57:32.644Z,73.34
2023-01-18T10:58:40.229Z,73.10
2023-01-18T10:59:41.966Z,72.82
2023-01-18T11:00:52.694Z,72.87
2023-01-18T11:01:57.544Z,72.52
2023-01-18T11:03:02.023Z,72.69
2023-01-18T11:04:21.250Z,72.83
2023-01-18T11:05:33.267Z,73.11
2023-01-18T11:06:45.415Z,73.28
2023-01-18T11:07:47.277Z,73.13
2023-01-18T11:08:50.164Z,72.61
2023-01-18T11:09:55.636Z,73.12
2023-01-18T11:11:00.357Z,72.61
2023-01-18T11:12:41.442Z,72.50
2023-01-18T11:13:49.133Z,72.17
2023-01-18T11:14:50.548Z,72.06
2023-01-18T11:16:18.041Z,72.29
2023-01-18T11:17:19.538Z,72.57
2023-01-18T11:18:21.004Z,72.16
2023-01-18T11:19:22.400Z,72.23
2023-01-18T11:20:31.049Z,72.45
2023-01-18T11:21:41.132Z,72.20
2023-01-18T11:23:02.555Z,72.62
2023-01-18T11:24:08.143Z,72.85
2023-01-18T11:25:17.285Z,72.38
2023-01-18T11:26:20.697Z,72.74
2023-01-18T11:27:24.744Z,72.66
2023-01-18T11:28:37.401Z,72.36
2023-01-18T11:29:42.923Z,72.65
2023-01-18T11:30:52.950Z,72.69
2023-01-18T11:31:55.425Z,73.19
2023-01-18T11:33:00.418Z,73.07
2023-01-18T11:34:07.598Z,72.74
2023-01-18T11:35:10.085Z,73.02
2023-01-18T11:36:11.606Z,73.43
2023-01-18T11:37:34.407Z,73.38
2023-01-18T11:38:35.959Z,73.96
2023-01-18T11:39:37.804Z,72.84
2023-01-18T11:40:39.307Z,73.32
2023-01-18T11:41:40.770Z,73.43
2023-01-18T11:42:42.617Z,73.37
2023-01-18T11:44:04.548Z,72.52
2023-01-18T11:45:24.157Z,72.58
2023-01-18T11:46:36.399Z,72.74
2023-01-18T11:47:52.059Z,73.13
2023-01-18T11:49:01.636Z,72.89
2023-01-18T11:50:22.516Z,72.89
2023-01-18T11:51:32.018Z,72.50
2023-01-18T11:52:51.206Z,72.69
2023-01-18T11:54:03.138Z,72.49
2023-01-18T11:55:17.911Z,72.55
2023-01-18T11:56:41.041Z,73.04
2023-01-18T11:57:44.371Z,72.45
2023-01-18T11:58:46.698Z,72.31
2023-01-18T11:59:49.231Z,73.00
2023-01-18T12:01:03.010Z,72.33
2023-01-18T12:02:34.692Z,72.22
2023-01-18T12:03:38.167Z,72.42
2023-01-18T12:05:03.964Z,72.05
2023-01-18T12:06:25.113Z,72.10
2023-01-18T12:08:05.897Z,72.65
2023-01-18T12:09:22.132Z,72.70
2023-01-18T12:10:26.003Z,72.38
2023-01-18T12:12:17.623Z,72.51
2023-01-18T12:13:20.434Z,72.58
2023-01-18T12:14:40.551Z,72.70
2023-01-18T12:16:00.931Z,72.46
2023-01-18T12:17:31.667Z,72.98
2023-01-18T12:18:35.818Z,72.76
2023-01-18T12:20:05.340Z,72.45
2023-01-18T12:21:17.779Z,72.94
2023-01-18T12:22:41.241Z,73.07
2023-01-18T12:24:07.524Z,72.65
2023-01-18T12:25:38.383Z,72.29
2023-01-18T12:26:49.463Z,72.17
2023-01-18T12:28:33.353Z,72.38
2023-01-18T12:30:02.061Z,72.51
2023-01-18T12:31:20.100Z,72.31
2023-01-18T12:32:36.551Z,72.56
2023-01-18T12:34:10.717Z,72.17
2023-01-18T12:35:53.877Z,72.39
2023-01-18T12:37:18.271Z,72.85
2023-01-18T12:38:28.553Z,73.35
2023-01-18T12:39:42.059Z,73.76
2023-01-18T12:41:12.698Z,74.06
2023-01-18T12:42:23.318Z,74.07
2023-01-18T12:43:37.139Z,74.29
2023-01-18T12:45:02.164Z,74.39
2023-01-18T12:46:10.901Z,73.68
2023-01-18T12:47:35.412Z,74.07
2023-01-18T12:48:55.010Z,74.19
2023-01-18T12:49:59.904Z,74.60
2023-01-18T12:51:11.659Z,74.76
2023-01-18T12:52:19.380Z,74.48
2023-01-18T12:53:41.276Z,74.68
2023-01-18T12:54:46.806Z,74.77
2023-01-18T12:55:53.416Z,74.40
2023-01-18T12:56:57.247Z,74.85
2023-01-18T12:58:02.222Z,74.55
2023-01-18T12:59:13.998Z,74.43
2023-01-18T13:00:21.560Z,74.86
2023-01-18T13:01:27.344Z,74.16
2023-01-18T13:02:41.402Z,74.47
2023-01-18T13:03:46.104Z,74.63
2023-01-18T13:05:17.990Z,74.67
2023-01-18T13:06:21.158Z,74.63
2023-01-18T13:07:31.700Z,74.89
2023-01-18T13:08:46.077Z,75.33
2023-01-18T13:09:49.711Z,75.64
2023-01-18T13:10:51.983Z,75.97
2023-01-18T13:11:54.650Z,75.88
2023-01-18T13:12:57.912Z,76.69
2023-01-18T13:14:06.394Z,76.57
2023-01-18T13:15:37.989Z,76.04
2023-01-18T13:16:57.849Z,76.47
2023-01-18T13:18:14.112Z,75.94
2023-01-18T13:19:24.831Z,75.86
2023-01-18T13:20:49.661Z,75.46
2023-01-18T13:22:06.425Z,75.66
2023-01-18T13:23:27.375Z,75.66
2023-01-18T13:24:39.305Z,75.26
2023-01-18T13:25:53.397Z,75.33
2023-01-18T13:27:07.879Z,75.63
2023-01-18T13:28:25.068Z,75.86
2023-01-18T13:29:29.852Z,75.38
2023-01-18T13:30:54.184Z,75.18
2023-01-18T13:31:57.257Z,75.61
2023-01-18T13:32:59.283Z,75.91
2023-01-18T13:34:01.201Z,75.54
2023-01-18T13:35:20.667Z,75.03
2023-01-18T13:36:22.853Z,75.24
2023-01-18T13:37:48.019Z,74.82
2023-01-18T13:38:58.519Z,74.28
2023-01-18T13:40:00.068Z,74.28
2023-01-18T13:41:04.399Z,74.89
2023-01-18T13:42:24.735Z,74.62
2023-01-18T13:43:34.197Z,75.06
2023-01-18T13:44:42.772Z,75.33
2023-01-18T13:46:04.569Z,74.93
2023-01-18T13:47:45.859Z,75.24
2023-01-18T13:49:35.427Z,74.84
2023-01-18T13:50:39.404Z,74.73
2023-01-18T13:51:40.773Z,74.52
2023-01-18T13:52:43.501Z,74.94
2023-01-18T13:53:49.767Z,74.70
2023-01-18T13:55:01.848Z,75.39
2023-01-18T13:56:03.963Z,75.78
2023-01-18T13:57:05.494Z,76.04
2023-01-18T13:58:31.020Z,76.17
2023-01-18T13:59:37.912Z,76.19
2023-01-18T14:00:47.876Z,76.00
2023-01-18T14:01:50.581Z,76.08
2023-01-18T14:02:56.742Z,75.77
2023-01-18T14:04:07.970Z,76.02
2023-01-18T14:05:26.411Z,76.35
2023-01-18T14:06:32.551Z,75.99
2023-01-18T14:07:46.532Z,76.02
2023-01-18T14:08:52.282Z,75.71
2023-01-18T14:09:54.016Z,75.49
2023-01-18T14:11:03.307Z,75.41
2023-01-18T14:12:06.288Z,75.46
2023-01-18T14:13:14.804Z,74.96
2023-01-18T14:14:17.602Z,75.50
2023-01-18T14:15:31.452Z,74.19
2023-01-18T14:16:35.087Z,74.61
2023-01-18T14:17:49.882Z,74.74
2023-01-18T14:19:20.307Z,75.22
2023-01-18T14:20:42.712Z,75.18
2023-01-18T14:22:06.135Z,74.76
2023-01-18T14:23:33.842Z,76.28
2023-01-18T14:24:51.740Z,75.51
2023-01-18T14:26:14.110Z,75.81